Terminal Aerodrome Forecast
Issued by NWS Flagstaff, AZ

Home | Current Version | Previous Version | Text Only | Print | Product List | Glossary On
Versions: 1 2 3 4 5 6 7 8 9 10 11 12 13 14 15
000
FTUS45 KFGZ 300522
TAFINW
TAF
KINW 300522Z 3006/3106 20005KT P6SM FEW080
     FM300800 11006KT P6SM SCT080
     FM301800 22011KT P6SM SCT080 PROB30 3018/3024 VRB20G35KT 5SM
      -TSRA BKN060CB
     FM310200 24007KT P6SM FEW090=

USA.gov is the U.S. government's official web portal to all federal, state and local government web resources and services.